Dakin Peak, Santa Catalina Island Weather observations

Data are for 10 minute period ending at time listed.
 Day   Time   Solar   Ave.   Ave.  Ave.  Vector    Max.   Stn.    Total
  of    of     Rad.   Air    Rel.  Wind   Wind     Wind   Baro.  Precip.
Year   Day            Temp.  Hum.  Speed  Dir.     Gust   Pres.         
2014   (PST)   W/m2    F      %     mph   deg.      mph    mb.     in.  
------------------------------------------------------------------------
 293    1:40    3.0    60   85.0     0     41.1     1.8    999.0   0.00  
 293    1:50    1.0    61   81.5     0    243.1     1.2    999.0   0.00  
 293    2:00    0.0    62   75.0     2    221.2     3.6    999.0   0.00  
 293    2:10    0.0    62   74.3     3    245.2     4.8    999.0   0.00  
 293    2:20    0.0    62   75.6     2    255.2     4.2    999.0   0.00  
 293    2:30    0.0    61   79.8     3    263.7     4.2    999.0   0.00  
 293    2:40    0.0    60   83.9     5    262.0     7.8    999.0   0.00  
 293    2:50    2.0    58   90.8     8    262.0    10.2    999.0   0.00  
 293    3:00    3.0    58   94.1    10    262.8    11.3    999.0   0.00  
 293    3:10    3.0    58   94.9    11    260.1    13.7    999.0   0.00  
 293    3:20    4.0    58   95.3     9    257.3    11.3    999.0   0.00  
 293    3:30    4.0    58   95.6     7    261.0     9.0    999.0   0.00  
 293    3:40    3.0    58   95.7     7    261.8     9.0    999.0   0.00  
 293    3:50    4.0    58   95.8     8    256.4    10.2    999.0   0.00  
 293    4:00    3.0    58   95.9     9    255.3    10.8    999.0   0.00  
 293    4:10    3.0    58   96.0     9    255.8    11.3    999.0   0.00  
 293    4:20    3.0    58   96.1     8    259.3     9.6    999.0   0.00  
 293    4:30    3.0    58   96.2     8    258.5     9.6    999.0   0.00  
 293    4:40    3.0    58   96.2     8    259.5     8.4    999.0   0.00  
 293    4:50    3.0    58   96.3     7    262.0     9.0    999.0   0.00  
 293    5:00    3.0    58   96.3     6    268.4     7.2    999.0   0.00  
 293    5:10    3.0    58   96.4     6    267.6     8.4    999.0   0.00  
 293    5:20    3.0    58   96.4     5    263.1     6.6    999.0   0.00  
 293    5:30    5.0    58   96.4     7    262.3     8.4    999.0   0.00  
 293    5:40    6.0    58   96.4     5    259.3     6.6    999.0   0.00  
 293    5:50    6.0    58   96.4     4    251.3     6.6    999.0   0.00  
 293    6:00    6.0    58   96.5     4    261.7     5.4    999.0   0.00  
 293    6:10    6.0    58   96.5     3    260.9     4.8    999.0   0.00  
 293    6:20   11.0    58   96.4     2    259.1     3.6    999.0   0.00  
 293    6:30   18.0    59   96.5     1    200.3     2.4    999.0   0.00  
 293    6:40   25.0    59   96.5     3    254.3     4.8    999.0   0.00  
 293    6:50   39.0    59   96.5     2    214.3     4.2    999.0   0.00  
 293    7:00   39.0    59   96.4     2    252.6     3.6    999.0   0.00  
 293    7:10   57.0    59   96.4     3    231.2     4.2    999.0   0.00  
 293    7:20   86.0    60   96.4     3    206.4     4.2    999.0   0.00  
 293    7:30  147.0    60   96.1     2    225.3     3.6    999.0   0.00  
 293    7:40  108.0    60   95.9     1    199.6     3.6    999.0   0.00  
 293    7:50  132.0    61   95.9     2    105.7     4.8    999.0   0.00  
 293    8:00  155.0    62   95.7     3    103.3     5.4    999.0   0.00  
 293    8:10  130.0    62   94.5     3    108.0     7.2    999.0   0.00  
 293    8:20  136.0    63   91.8     4    104.9     6.0    999.0   0.00  
 293    8:30  157.0    63   89.2     3     59.5     5.4    999.0   0.00  
 293    8:40  174.0    63   87.7     4     73.7     5.4    999.0   0.00  
 293    8:50  268.0    65   84.6     5     83.5     7.8    999.0   0.00  
 293    9:00  267.0    67   81.0     5     82.2     7.2    999.0   0.00  
 293    9:10  279.0    66   83.6     5     88.2     9.0    999.0   0.00  
 293    9:20  499.0    69   78.4     5     97.9     9.0    999.0   0.00  
 293    9:30  200.0    68   77.0     6    104.6     8.4    999.0   0.00  
 293    9:40  325.0    68   78.8     7     98.4    10.2    999.0   0.00  
 293    9:50  248.0    67   79.2     6     87.7     9.6    999.0   0.00  
 293   10:00  262.0    67   80.3     6     89.5    10.2    999.0   0.00  
 293   10:10  277.0    67   79.8     6     78.3     9.6    999.0   0.00  
 293   10:20  261.0    66   82.7     4     63.6     8.4    999.0   0.00  
 293   10:30  493.0    67   80.6     4     65.1     7.2    999.0   0.00  
 293   10:40  415.0    69   75.9     4     54.7     6.6    999.0   0.00  
 293   10:50  338.0    68   77.4     4     85.8     9.0    999.0   0.00  
 293   11:00  333.0    67   79.9     6     55.2     9.0    999.0   0.00  
 293   11:10  348.0    67   79.1     7     93.8    11.3    999.0   0.00  
 293   11:20  413.0    68   78.9     7     80.1    10.2    999.0   0.00  
 293   11:30  374.0    66   80.9     5     50.9    10.2    999.0   0.00  
 293   11:40  532.0    69   77.1     6     63.0    10.8    999.0   0.00  
 293   11:50  496.0    69   76.8     6     68.7     8.4    999.0   0.00  
 293   12:00  565.0    69   76.1     7     90.9    11.9    999.0   0.00  
 293   12:10  547.0    71   72.1     5    104.5     8.4    999.0   0.00  
 293   12:20  470.0    69   75.2     5     84.8     8.4    999.0   0.00  
 293   12:30  523.0    70   74.0     5     94.5     8.4    999.0   0.00  
 293   12:40  548.0    70   74.5     4     90.2     7.2    999.0   0.00  
 293   12:50  540.0    72   69.9     4    100.8     8.4    999.0   0.00  
 293   13:00  515.0    70   74.8     5    102.6     8.4    999.0   0.00  
 293   13:10  486.0    70   73.7     2     69.5     4.2    999.0   0.00  
 293   13:20  494.0    72   71.3     3     99.7     6.6    999.0   0.00  
 293   13:30  466.0    72   71.0     4    110.8     6.6    999.0   0.00  
 293   13:40  446.0    72   69.6     3    164.3     6.6    999.0   0.00  
 293   13:50  202.0    70   73.3     3    132.8     5.4    999.0   0.00  
 293   14:00  422.0    71   72.4     2    165.2     4.2    999.0   0.00  
 293   14:10  406.0    72   71.4     4    119.8     7.2    999.0   0.00  
 293   14:20  386.0    70   75.3     4    103.3     7.2    999.0   0.00  
 293   14:30  366.0    70   75.1     4    108.5     7.2    999.0   0.00  
 293   14:40  347.0    70   75.6     3    113.3     6.6    999.0   0.00  
 293   14:50  325.0    69   76.1     3     80.9     6.0    999.0   0.00  
 293   15:00  300.0    67   80.8     3     13.7     5.4    999.0   0.00  
 293   15:10  279.0    69   78.7     2     50.8     4.2    999.0   0.00  
 293   15:20  257.0    68   79.3     3    108.2     4.2    999.0   0.00  
 293   15:30  193.0    69   78.2     2    145.0     4.8    999.0   0.00  
 293   15:40  195.0    69   77.2     4    213.8     6.6    999.0   0.00  
 293   15:50  188.0    68   76.7     8    248.6    11.3    999.0   0.00  
 293   16:00  122.0    66   81.7     9    251.7    14.3    999.0   0.00  
 293   16:10  129.0    66   78.6    10    261.1    14.3    999.0   0.00  
 293   16:20  114.0    66   79.7    12    263.2    13.7    999.0   0.00  
 293   16:30   84.0    65   78.8    11    261.6    16.7    999.0   0.00  
 293   16:40   54.0    63   84.8    12    259.7    15.5    999.0   0.00  
 293   16:50   23.0    62   88.6    15    256.4    20.9    999.0   0.00  
 293   17:00    9.0    60   91.1    16    254.1    18.5    999.0   0.00  
 293   17:10    6.0    60   91.5    12    255.4    14.9    999.0   0.00  
 293   17:20    6.0    60   92.0    14    257.3    17.3    999.0   0.00  
 293   17:30    3.0    59   92.6    14    254.2    17.3    999.0   0.00  
 293   17:40    3.0    59   92.8    15    255.9    18.5    999.0   0.00  
 293   17:50    3.0    59   93.1    14    259.5    16.1    999.0   0.00  
 293   18:00    3.0    59   93.2    13    256.4    16.7    999.0   0.00  
 293   18:10    3.0    59   93.5    15    258.5    20.9    999.0   0.00  
 293   18:20    3.0    59   94.3    18    260.9    20.9    999.0   0.00  
 293   18:30    3.0    59   94.5    15    262.6    17.9    999.0   0.00  
 293   18:40    3.0    59   94.2    14    259.6    16.1    999.0   0.00  
 293   18:50    3.0    60   93.7    13    255.5    17.3    999.0   0.00  
 293   19:00    3.0    60   93.2    16    258.8    19.7    999.0   0.00  
 293   19:10    3.0    60   93.1    13    259.4    18.5    999.0   0.00  
 293   19:20    3.0    60   92.6     9    261.5    12.5    999.0   0.00  
 293   19:30    3.0    60   92.8    11    263.7    13.7    999.0   0.00  
 293   19:40    3.0    60   92.7    11    261.9    13.1    999.0   0.00  
 293   19:50    3.0    60   92.5     8    261.1    11.9    999.0   0.00  
 293   20:00    3.0    60   92.1     6    257.5     7.8    999.0   0.00  
 293   20:10    1.0    61   89.4     2    274.7     4.2    999.0   0.00  
 293   20:20    0.0    61   84.6     1    257.7     4.2    999.0   0.00  
 293   20:30    0.0    62   79.2     8    296.7    11.9    999.0   0.00  
 293   20:40    0.0    61   85.7     6    282.6     9.0    999.0   0.00  
 293   20:50    0.0    61   84.9     6    303.1     7.8    999.0   0.00  
 293   21:00    0.0    61   84.1     5    308.8     6.6    999.0   0.00  
 293   21:10    0.0    61   83.9     6    281.2     7.8    999.0   0.00  
 293   21:20    0.0    59   87.7     9    270.5    10.2    999.0   0.00  
 293   21:30    2.0    59   91.4     9    277.4    10.2    999.0   0.00  
 293   21:40    3.0    59   92.7     9    278.0    10.2    999.0   0.00  
 293   21:50    1.0    60   91.4     9    287.5    11.9    999.0   0.00  
 293   22:00    0.0    62   84.1     7    302.9     9.0    999.0   0.00  
 293   22:10    0.0    62   82.9     6    293.8     9.0    999.0   0.00  
 293   22:20    0.0    62   82.7     8    288.1    10.2    999.0   0.00  
 293   22:30    0.0    62   83.1     7    290.5     9.0    999.0   0.00  
 293   22:40    0.0    62   83.3     6    296.7     7.8    999.0   0.00  
 293   22:50    0.0    61   85.1     6    282.6     8.4    999.0   0.00  
 293   23:00    0.0    60   87.3     8    274.1    10.8    999.0   0.00  
 293   23:10    0.0    60   88.1     9    270.9    10.2    999.0   0.00  
 293   23:20    0.0    60   88.5     8    275.5    10.8    999.0   0.00  
 293   23:30    0.0    62   85.1     5    279.7     7.2    999.0   0.00  
 293   23:40    0.0    62   83.6     4    278.6     4.8    999.0   0.00  
 293   23:50    0.0    63   79.5     6    292.7     8.4    999.0   0.00  
 294    0:00    0.0    63   80.0     9    292.9    11.3    999.0   0.00  
 294    0:10    0.0    62   82.7     8    285.2    10.8    999.0   0.00  
 294    0:20    0.0    62   82.8     7    306.5     8.4    999.0   0.00  
 294    0:30    0.0    62   82.7     6    326.3     7.2    999.0   0.00  
 294    0:40    0.0    61   84.8     7    324.6     9.0    999.0   0.00  
 294    0:50    0.0    60   89.1    10    320.8    11.9    999.0   0.00  
 294    1:00    0.0    60   90.7    11    319.8    12.5    999.0   0.00  
 294    1:10    0.0    60   91.1    10    310.4    12.5    999.0   0.00  
 294    1:20    3.0    60   92.0     8    311.5     9.0    999.0   0.00  
 294    1:30    3.0    60   92.8     7    313.6     8.4    999.0   0.00  

Return to Dakin Peak graphs page.


Western Regional Climate Center,wrcc@dri.edu